Red Hook, NY

5:57 PM EDT on September 24, 2016 (GMT -0400)
Red Hook | | Change Station

Elev 256 ft 42.01 °N, 73.85 °W | Updated 39 seconds ago

Clear
Clear
64.7 °F
Feels Like 64.7 °F
N
4.0
Wind Variable Wind from North
Gusts 9.0 mph

Today
High -- | Low -- °F
--% Chance of Precip.
Yesterday
High -- | Low -- °F
Precip. -- in
Pressure 30.08 in
Visibility 10.0 miles
Clouds Clear
Dew Point 32 °F
Humidity 30%
Rainfall 0.00 in
Snow Depth Not available.
6:45 AM 6:48 PM
Waning Crescent, 34% visible
METAR KPOU 242153Z 04009KT 10SM CLR 19/04 A3008 RMK AO2 SLP184 T01890044
Pressure 30.08 in
Visibility 10.0 miles
Clouds Clear
Dew Point 32 °F
Humidity 30%
Rainfall 0.00 in
Snow Depth Not available.
6:45 AM 6:48 PM
Waning Crescent, 34% visible
METAR KPOU 242153Z 04009KT 10SM CLR 19/04 A3008 RMK AO2 SLP184 T01890044

10-Day Weather Forecast

Almanac

Astronomy

Sep. 24, 2016 Rise Set
Actual Time
Civil Twilight
Nautical Twilight
Astronomical Twilight
Moon
Length of Visible Light
Length of Day
Tomorrow will be .
, % of the Moon is Illuminated

Today's Extremes

State Highs State Lows

Community

WunderPhotos

Upload Photos

1,941,434 photos uploaded!

WunderBlog® & News

Nearby

Air Quality

  Air Quality AQ Index Pollutant
Not available.

Snow Depth

Station Depth Elevation

Earthquake Activity

City Distance Mag. Time & Date
Minimum magnitude displayed is 2.5.

Coastal Water Temperatures

Place Temperature

Stations

Nearby Weather Stations

Station Location Temp. Windchill Dew Point Humidity Wind Precip. Elev Updated Type
                   

Watches & Warnings

There are currently no watches in effect.